createdAt,value
2022-10-10T00:00:34.456Z,6.70
2022-10-10T00:02:37.259Z,6.55
2022-10-10T00:04:39.947Z,6.20
2022-10-10T00:06:43.961Z,6.72
2022-10-10T00:08:46.767Z,6.28
2022-10-10T00:10:49.381Z,7.38
2022-10-10T00:12:52.687Z,6.65
2022-10-10T00:14:55.453Z,6.90
2022-10-10T00:16:58.094Z,7.32
2022-10-10T00:19:00.701Z,6.75
2022-10-10T00:21:03.353Z,6.53
2022-10-10T00:23:08.021Z,6.15
2022-10-10T00:25:11.636Z,7.28
2022-10-10T00:27:14.389Z,7.50
2022-10-10T00:29:17.003Z,6.32
2022-10-10T00:31:19.828Z,6.53
2022-10-10T00:33:22.715Z,6.28
2022-10-10T00:35:25.333Z,6.93
2022-10-10T00:37:28.334Z,6.55
2022-10-10T00:39:32.302Z,6.93
2022-10-10T00:41:34.928Z,6.93
2022-10-10T00:43:37.740Z,6.93
2022-10-10T00:45:42.399Z,6.68
2022-10-10T00:47:45.029Z,6.22
2022-10-10T00:49:47.676Z,6.50
2022-10-10T00:51:54.054Z,7.13
2022-10-10T00:53:59.076Z,7.07
2022-10-10T00:56:04.467Z,6.97
2022-10-10T00:58:09.021Z,5.93
2022-10-10T01:00:12.319Z,6.72
2022-10-10T01:02:14.894Z,6.88
2022-10-10T01:04:32.620Z,6.25
2022-10-10T01:06:35.535Z,6.72
2022-10-10T01:08:38.685Z,6.30
2022-10-10T01:10:54.960Z,6.53
2022-10-10T01:13:10.285Z,6.38
2022-10-10T01:15:20.237Z,6.82
2022-10-10T01:17:31.167Z,7.45
2022-10-10T01:20:11.201Z,7.68
2022-10-10T01:22:26.299Z,6.55
2022-10-10T01:24:56.359Z,7.47
2022-10-10T01:27:19.403Z,7.30
2022-10-10T01:29:29.959Z,7.20
2022-10-10T01:31:36.949Z,6.97
2022-10-10T01:33:50.077Z,7.13
2022-10-10T01:35:56.330Z,7.60
2022-10-10T01:38:06.947Z,7.18
2022-10-10T01:40:18.828Z,7.07
2022-10-10T01:42:28.587Z,7.60
2022-10-10T01:44:32.537Z,7.35
2022-10-10T01:46:35.219Z,6.80
2022-10-10T01:48:38.252Z,7.47
2022-10-10T01:50:52.571Z,7.57
2022-10-10T01:53:09.793Z,7.65
2022-10-10T01:55:29.452Z,8.05
2022-10-10T01:57:42.146Z,7.40
2022-10-10T01:59:59.057Z,7.50
2022-10-10T02:02:09.662Z,6.78
2022-10-10T02:04:18.480Z,6.53
2022-10-10T02:06:26.681Z,7.43
2022-10-10T02:08:34.574Z,7.65
2022-10-10T02:10:41.105Z,7.93
2022-10-10T02:12:44.476Z,7.38
2022-10-10T02:14:52.873Z,7.55
2022-10-10T02:16:58.920Z,6.82
2022-10-10T02:19:06.656Z,7.60
2022-10-10T02:21:10.523Z,7.20
2022-10-10T02:23:16.722Z,8.25
2022-10-10T02:25:24.674Z,7.90
2022-10-10T02:27:33.304Z,7.75
2022-10-10T02:29:39.523Z,8.18
2022-10-10T02:31:46.968Z,7.90
2022-10-10T02:33:53.036Z,7.28
2022-10-10T02:35:55.931Z,8.15
2022-10-10T02:38:00.371Z,7.03
2022-10-10T02:40:04.988Z,7.28
2022-10-10T02:42:09.701Z,7.72
2022-10-10T02:44:13.690Z,7.32
2022-10-10T02:46:16.509Z,8.23
2022-10-10T02:48:20.575Z,7.30
2022-10-10T02:50:23.688Z,7.65
2022-10-10T02:52:26.372Z,8.23
2022-10-10T02:54:29.147Z,7.38
2022-10-10T02:56:31.747Z,7.05
2022-10-10T02:58:34.314Z,8.52
2022-10-10T03:00:36.925Z,9.18
2022-10-10T03:02:39.565Z,7.70
2022-10-10T03:04:44.816Z,8.23
2022-10-10T03:06:47.649Z,7.78
2022-10-10T03:08:50.327Z,7.85
2022-10-10T03:10:57.151Z,7.70
2022-10-10T03:12:59.769Z,7.70
2022-10-10T03:15:02.501Z,7.18
2022-10-10T03:17:05.129Z,7.40
2022-10-10T03:19:08.706Z,7.10
2022-10-10T03:21:12.752Z,7.03
2022-10-10T03:23:15.393Z,7.30
2022-10-10T03:25:18.144Z,7.63
2022-10-10T03:27:20.789Z,7.72
2022-10-10T03:29:23.519Z,7.30
2022-10-10T03:31:26.138Z,7.22
2022-10-10T03:33:28.682Z,6.75
2022-10-10T03:35:31.330Z,7.35
2022-10-10T03:37:35.284Z,7.53
2022-10-10T03:39:37.877Z,7.32
2022-10-10T03:41:40.495Z,7.80
2022-10-10T03:43:43.086Z,7.05
2022-10-10T03:45:47.530Z,7.85
2022-10-10T03:47:50.996Z,7.40
2022-10-10T03:49:53.599Z,7.50
2022-10-10T03:51:56.275Z,7.18
2022-10-10T03:54:00.343Z,7.35
2022-10-10T03:56:02.983Z,7.32
2022-10-10T03:58:05.572Z,7.30
2022-10-10T04:00:09.560Z,8.02
2022-10-10T04:02:12.152Z,7.53
2022-10-10T04:04:14.744Z,7.05
2022-10-10T04:06:17.346Z,7.57
2022-10-10T04:08:20.621Z,6.90
2022-10-10T04:10:24.651Z,7.97
2022-10-10T04:12:27.294Z,7.30
2022-10-10T04:14:29.912Z,7.53
2022-10-10T04:16:32.631Z,7.35
2022-10-10T04:18:35.314Z,7.25
2022-10-10T04:20:38.079Z,7.60
2022-10-10T04:22:40.833Z,7.95
2022-10-10T04:24:44.103Z,7.80
2022-10-10T04:26:48.091Z,7.18
2022-10-10T04:28:51.031Z,7.78
2022-10-10T04:30:56.198Z,8.13
2022-10-10T04:32:59.416Z,7.40
2022-10-10T04:35:02.077Z,6.85
2022-10-10T04:37:04.688Z,7.07
2022-10-10T04:39:07.279Z,6.95
2022-10-10T04:41:09.904Z,7.40
2022-10-10T04:43:14.290Z,7.95
2022-10-10T04:45:17.030Z,7.50
2022-10-10T04:47:19.784Z,7.97
2022-10-10T04:49:23.105Z,6.93
2022-10-10T04:51:25.779Z,7.18
2022-10-10T04:53:28.750Z,6.60
2022-10-10T04:55:31.368Z,7.38
2022-10-10T04:57:33.983Z,7.32
2022-10-10T04:59:37.923Z,6.78
2022-10-10T05:01:40.642Z,6.43
2022-10-10T05:03:43.407Z,6.70
2022-10-10T05:05:45.998Z,7.18
2022-10-10T05:07:51.855Z,6.47
2022-10-10T05:09:57.986Z,7.15
2022-10-10T05:12:00.698Z,6.82
2022-10-10T05:14:04.102Z,7.05
2022-10-10T05:16:08.231Z,6.65
2022-10-10T05:18:10.883Z,7.40
2022-10-10T05:20:13.535Z,6.75
2022-10-10T05:22:16.396Z,6.30
2022-10-10T05:24:18.980Z,6.53
2022-10-10T05:26:21.685Z,6.28
2022-10-10T05:28:24.381Z,7.47
2022-10-10T05:30:27.007Z,7.05
2022-10-10T05:32:30.985Z,7.30
2022-10-10T05:34:33.599Z,6.60
2022-10-10T05:36:36.184Z,7.32
2022-10-10T05:38:39.245Z,6.28
2022-10-10T05:40:42.307Z,6.32
2022-10-10T05:42:44.937Z,6.53
2022-10-10T05:44:47.496Z,7.90
2022-10-10T05:46:50.116Z,6.88
2022-10-10T05:48:55.071Z,6.88
2022-10-10T05:50:59.177Z,6.60
2022-10-10T05:53:01.869Z,6.35
2022-10-10T05:55:04.721Z,7.32
2022-10-10T05:57:07.304Z,7.90
2022-10-10T05:59:10.005Z,6.70
2022-10-10T06:01:13.204Z,8.00
2022-10-10T06:03:17.216Z,7.35
2022-10-10T06:05:21.274Z,7.78
2022-10-10T06:07:23.878Z,7.88
2022-10-10T06:09:26.614Z,7.93
2022-10-10T06:11:29.240Z,7.90
2022-10-10T06:13:32.010Z,7.95
2022-10-10T06:15:34.637Z,6.72
2022-10-10T06:17:37.236Z,6.85
2022-10-10T06:19:39.817Z,7.85
2022-10-10T06:21:43.816Z,7.90
2022-10-10T06:23:46.725Z,6.70
2022-10-10T06:25:53.130Z,7.65
2022-10-10T06:27:55.736Z,6.88
2022-10-10T06:29:58.339Z,7.40
2022-10-10T06:32:00.971Z,7.38
2022-10-10T06:34:03.674Z,7.18
2022-10-10T06:36:08.309Z,7.45
2022-10-10T06:38:12.679Z,7.00
2022-10-10T06:40:15.342Z,8.00
2022-10-10T06:42:17.921Z,7.18
2022-10-10T06:44:20.610Z,6.68
2022-10-10T06:46:23.271Z,7.00
2022-10-10T06:48:26.329Z,7.13
2022-10-10T06:50:28.933Z,7.30
2022-10-10T06:52:31.573Z,7.55
2022-10-10T06:54:36.285Z,7.55
2022-10-10T06:56:39.020Z,8.00
2022-10-10T06:58:41.710Z,7.07
2022-10-10T07:00:49.953Z,7.88
2022-10-10T07:02:53.078Z,7.20
2022-10-10T07:04:55.927Z,7.20
2022-10-10T07:06:58.564Z,7.35
2022-10-10T07:09:01.234Z,7.07
2022-10-10T07:11:06.181Z,7.30
2022-10-10T07:13:08.826Z,7.05
2022-10-10T07:15:11.720Z,7.00
2022-10-10T07:17:14.409Z,6.85
2022-10-10T07:19:17.032Z,7.82
2022-10-10T07:21:19.880Z,7.93
2022-10-10T07:23:22.533Z,7.90
2022-10-10T07:25:25.492Z,8.07
2022-10-10T07:27:29.498Z,7.55
2022-10-10T07:29:32.110Z,7.40
2022-10-10T07:31:34.822Z,7.05
2022-10-10T07:33:39.250Z,6.50
2022-10-10T07:35:42.101Z,7.68
2022-10-10T07:37:45.050Z,7.70
2022-10-10T07:39:47.708Z,7.10
2022-10-10T07:41:50.823Z,6.68
2022-10-10T07:43:57.016Z,7.18
2022-10-10T07:48:03.224Z,8.10
2022-10-10T07:50:07.680Z,7.22
2022-10-10T07:52:10.307Z,7.65
2022-10-10T07:54:12.963Z,6.68
2022-10-10T07:56:15.600Z,6.32
2022-10-10T07:58:18.299Z,7.05
2022-10-10T08:00:22.650Z,6.95
2022-10-10T08:02:25.260Z,7.35
2022-10-10T08:04:27.959Z,6.20
2022-10-10T08:06:30.613Z,6.30
2022-10-10T08:08:34.599Z,6.30
2022-10-10T08:10:39.177Z,6.32
2022-10-10T08:12:41.821Z,5.85
2022-10-10T08:14:44.664Z,6.03
2022-10-10T08:16:48.698Z,5.93
2022-10-10T08:18:51.405Z,5.43
2022-10-10T08:20:59.829Z,5.50
2022-10-10T08:23:02.455Z,5.70
2022-10-10T08:25:05.635Z,5.93
2022-10-10T08:27:08.234Z,5.90
2022-10-10T08:29:10.876Z,5.55
2022-10-10T08:31:15.617Z,5.32
2022-10-10T08:33:19.630Z,5.10
2022-10-10T08:35:22.329Z,5.28
2022-10-10T08:37:30.269Z,4.95
2022-10-10T08:39:35.321Z,5.60
2022-10-10T08:41:43.631Z,6.10
2022-10-10T08:43:50.755Z,5.63
2022-10-10T08:45:56.477Z,5.53
2022-10-10T08:48:02.557Z,6.15
2022-10-10T08:50:15.143Z,5.47
2022-10-10T08:52:28.880Z,5.63
2022-10-10T08:54:34.183Z,5.82
2022-10-10T08:56:38.884Z,5.22
2022-10-10T08:58:45.474Z,5.05
2022-10-10T09:02:57.079Z,5.03
2022-10-10T09:05:00.003Z,4.93
2022-10-10T09:07:18.622Z,5.10
2022-10-10T09:09:32.043Z,5.13
2022-10-10T09:11:49.774Z,5.57
2022-10-10T09:14:05.544Z,4.55
2022-10-10T09:16:18.647Z,4.25
2022-10-10T09:18:32.601Z,5.00
2022-10-10T09:20:48.150Z,4.53
2022-10-10T09:22:55.704Z,4.18
2022-10-10T09:25:04.159Z,5.00
2022-10-10T09:27:13.091Z,4.90
2022-10-10T09:29:28.872Z,4.65
2022-10-10T09:31:37.098Z,4.35
2022-10-10T09:33:45.064Z,4.32
2022-10-10T09:35:49.446Z,3.85
2022-10-10T09:38:00.255Z,3.80
2022-10-10T09:40:12.562Z,3.42
2022-10-10T09:42:18.808Z,2.97
2022-10-10T09:44:23.251Z,3.10
2022-10-10T09:46:26.369Z,2.78
2022-10-10T09:48:32.443Z,2.38
2022-10-10T09:50:36.010Z,2.30
2022-10-10T09:52:40.189Z,2.72
2022-10-10T09:54:44.560Z,2.50
2022-10-10T09:56:51.593Z,2.45
2022-10-10T09:58:56.412Z,2.85
2022-10-10T10:01:14.070Z,2.95
2022-10-10T10:03:19.179Z,2.97
2022-10-10T10:05:27.616Z,2.88
2022-10-10T10:07:32.247Z,3.45
2022-10-10T10:09:35.434Z,3.65
2022-10-10T10:11:40.281Z,3.30
2022-10-10T10:13:43.078Z,2.92
2022-10-10T10:15:49.902Z,2.47
2022-10-10T10:18:10.699Z,2.65
2022-10-10T10:20:33.478Z,2.95
2022-10-10T10:22:39.155Z,2.63
2022-10-10T10:24:41.936Z,2.38
2022-10-10T10:26:47.941Z,2.33
2022-10-10T10:28:52.889Z,2.75
2022-10-10T10:30:57.634Z,2.75
2022-10-10T10:33:07.396Z,2.40
2022-10-10T10:35:24.070Z,2.53
2022-10-10T10:37:35.096Z,2.35
2022-10-10T10:39:51.344Z,2.60
2022-10-10T10:42:01.119Z,2.30
2022-10-10T10:44:28.201Z,2.05
2022-10-10T10:46:45.184Z,2.33
2022-10-10T10:48:57.054Z,2.22
2022-10-10T10:51:08.967Z,2.33
2022-10-10T10:53:19.703Z,2.55
2022-10-10T10:55:39.879Z,2.72
2022-10-10T10:58:22.480Z,2.05
2022-10-10T11:01:17.232Z,2.00
2022-10-10T11:03:14.976Z,2.00
2022-10-10T11:05:41.401Z,2.00
2022-10-10T11:07:54.430Z,2.10
2022-10-10T11:10:02.727Z,1.80
2022-10-10T11:12:16.866Z,1.90
2022-10-10T11:14:36.739Z,1.70
2022-10-10T11:16:49.344Z,1.90
2022-10-10T11:18:57.803Z,2.03
2022-10-10T11:21:05.108Z,2.75
2022-10-10T11:23:13.599Z,2.45
2022-10-10T11:25:24.222Z,2.00
2022-10-10T11:27:33.867Z,3.15
2022-10-10T11:29:49.414Z,3.00
2022-10-10T11:31:56.271Z,2.88
2022-10-10T11:34:01.957Z,2.15
2022-10-10T11:36:07.609Z,2.55
2022-10-10T11:38:19.656Z,2.58
2022-10-10T11:40:35.993Z,2.40
2022-10-10T11:42:46.569Z,2.45
2022-10-10T11:44:55.976Z,2.20
2022-10-10T11:47:04.439Z,2.17
2022-10-10T11:49:15.555Z,2.03
2022-10-10T11:51:28.827Z,2.15
2022-10-10T11:53:37.315Z,2.45
2022-10-10T11:55:46.416Z,2.22
2022-10-10T11:57:54.556Z,2.20
2022-10-10T12:00:03.202Z,2.17
2022-10-10T12:02:18.868Z,1.88
2022-10-10T12:04:23.167Z,2.03
2022-10-10T12:06:33.359Z,2.30
2022-10-10T12:08:40.918Z,2.55
2022-10-10T12:10:49.515Z,2.17
2022-10-10T12:12:55.160Z,2.10
2022-10-10T12:15:03.284Z,2.10
2022-10-10T12:17:06.150Z,2.40
2022-10-10T12:19:17.581Z,2.50
2022-10-10T12:21:23.955Z,2.30
2022-10-10T12:23:30.697Z,2.30
2022-10-10T12:25:42.080Z,2.22
2022-10-10T12:27:46.445Z,2.25
2022-10-10T12:30:10.366Z,2.13
2022-10-10T12:34:44.301Z,2.58
2022-10-10T12:37:12.487Z,2.40
2022-10-10T12:39:38.964Z,2.00
2022-10-10T12:41:56.008Z,2.28
2022-10-10T12:44:21.654Z,2.53
2022-10-10T12:46:28.177Z,2.85
2022-10-10T12:48:32.701Z,2.30
2022-10-10T12:50:38.090Z,2.55
2022-10-10T12:52:49.860Z,2.42
2022-10-10T12:54:53.761Z,1.92
2022-10-10T12:57:08.202Z,2.10
2022-10-10T12:59:20.871Z,2.20
2022-10-10T13:01:26.910Z,2.67
2022-10-10T13:03:35.625Z,2.40
2022-10-10T13:05:41.820Z,3.15
2022-10-10T13:09:51.313Z,2.50
2022-10-10T13:11:57.155Z,2.60
2022-10-10T13:13:59.777Z,2.55
2022-10-10T13:16:09.216Z,2.70
2022-10-10T13:18:11.870Z,2.50
2022-10-10T13:20:29.504Z,2.25
2022-10-10T13:22:34.421Z,3.22
2022-10-10T13:24:38.042Z,2.20
2022-10-10T13:26:46.398Z,2.80
2022-10-10T13:28:49.824Z,2.28
2022-10-10T13:30:52.869Z,3.05
2022-10-10T13:32:57.200Z,2.67
2022-10-10T13:35:02.287Z,2.60
2022-10-10T13:37:07.698Z,2.22
2022-10-10T13:39:16.567Z,2.50
2022-10-10T13:41:20.253Z,2.53
2022-10-10T13:43:23.420Z,2.40
2022-10-10T13:45:45.354Z,2.50
2022-10-10T13:47:54.446Z,2.25
2022-10-10T13:49:58.218Z,2.97
2022-10-10T13:52:03.851Z,2.53
2022-10-10T13:54:44.501Z,2.70
2022-10-10T13:56:47.190Z,2.58
2022-10-10T13:58:51.870Z,3.33
2022-10-10T14:00:59.874Z,2.40
2022-10-10T14:03:02.832Z,2.30
2022-10-10T14:05:07.616Z,2.88
2022-10-10T14:07:14.770Z,2.78
2022-10-10T14:09:23.687Z,2.40
2022-10-10T14:11:29.254Z,2.40
2022-10-10T14:13:34.342Z,2.47
2022-10-10T14:15:45.044Z,2.15
2022-10-10T14:17:47.661Z,2.45
2022-10-10T14:19:50.726Z,2.17
2022-10-10T14:21:53.399Z,2.83
2022-10-10T14:23:56.003Z,2.60
2022-10-10T14:25:58.881Z,2.70
2022-10-10T14:28:02.861Z,2.50
2022-10-10T14:30:06.946Z,2.30
2022-10-10T14:32:10.856Z,3.00
2022-10-10T14:34:14.658Z,2.22
2022-10-10T14:36:17.399Z,2.10
2022-10-10T14:38:20.421Z,2.40
2022-10-10T14:40:23.879Z,2.88
2022-10-10T14:42:27.518Z,2.40
2022-10-10T14:44:32.785Z,2.42
2022-10-10T14:46:35.834Z,2.45
2022-10-10T14:48:38.479Z,2.30
2022-10-10T14:50:44.376Z,2.90
2022-10-10T14:52:47.193Z,2.80
2022-10-10T14:54:49.891Z,2.80
2022-10-10T14:57:08.813Z,2.72
2022-10-10T14:59:17.750Z,2.22
2022-10-10T15:01:41.743Z,2.47
2022-10-10T15:03:44.334Z,2.38
2022-10-10T15:05:48.291Z,2.70
2022-10-10T15:07:53.642Z,2.40
2022-10-10T15:10:50.637Z,2.80
2022-10-10T15:12:19.207Z,2.30
2022-10-10T15:14:21.812Z,3.00
2022-10-10T15:16:24.825Z,2.50
2022-10-10T15:18:53.262Z,2.80
2022-10-10T15:20:51.476Z,2.83
2022-10-10T15:22:54.714Z,2.42
2022-10-10T15:24:57.369Z,2.67
2022-10-10T15:27:00.041Z,2.85
2022-10-10T15:29:02.748Z,2.92
2022-10-10T15:31:06.076Z,3.00
2022-10-10T15:33:08.898Z,2.85
2022-10-10T15:35:15.827Z,2.80
2022-10-10T15:37:18.782Z,2.92
2022-10-10T15:39:21.450Z,2.70
2022-10-10T15:41:24.201Z,3.05
2022-10-10T15:43:27.039Z,2.78
2022-10-10T15:45:55.126Z,2.60
2022-10-10T15:47:52.445Z,3.10
2022-10-10T15:49:55.084Z,2.88
2022-10-10T15:51:59.137Z,2.55
2022-10-10T15:54:02.205Z,2.85
2022-10-10T15:56:10.193Z,2.40
2022-10-10T15:58:13.802Z,3.05
2022-10-10T16:00:17.331Z,2.55
2022-10-10T16:02:19.954Z,2.25
2022-10-10T16:04:22.997Z,3.10
2022-10-10T16:06:26.790Z,2.90
2022-10-10T16:08:30.803Z,2.78
2022-10-10T16:10:38.462Z,2.80
2022-10-10T16:12:41.295Z,2.60
2022-10-10T16:14:43.952Z,2.58
2022-10-10T16:16:46.555Z,2.70
2022-10-10T16:18:49.317Z,2.60
2022-10-10T16:20:52.076Z,2.53
2022-10-10T16:22:54.725Z,3.17
2022-10-10T16:25:20.809Z,3.58
2022-10-10T16:27:25.718Z,3.60
2022-10-10T16:29:31.082Z,3.13
2022-10-10T16:31:35.150Z,3.53
2022-10-10T16:33:39.453Z,2.95
2022-10-10T16:35:42.078Z,3.00
2022-10-10T16:37:44.760Z,3.38
2022-10-10T16:39:47.378Z,3.05
2022-10-10T16:41:51.355Z,3.22
2022-10-10T16:43:54.092Z,3.15
2022-10-10T16:45:56.738Z,3.17
2022-10-10T16:47:59.424Z,3.45
2022-10-10T16:50:02.408Z,3.25
2022-10-10T16:52:05.228Z,3.13
2022-10-10T16:54:07.887Z,3.40
2022-10-10T16:56:13.937Z,3.05
2022-10-10T16:58:17.907Z,3.08
2022-10-10T17:00:20.618Z,2.70
2022-10-10T17:02:24.424Z,3.17
2022-10-10T17:04:27.152Z,3.80
2022-10-10T17:06:35.398Z,3.20
2022-10-10T17:08:38.197Z,3.33
2022-10-10T17:10:41.407Z,4.03
2022-10-10T17:12:44.052Z,3.25
2022-10-10T17:14:48.076Z,3.15
2022-10-10T17:17:10.978Z,8.70
2022-10-10T17:19:13.349Z,7.75
2022-10-10T17:21:18.408Z,3.65
2022-10-10T17:23:21.088Z,3.33
2022-10-10T17:25:23.745Z,8.00
2022-10-10T17:27:26.465Z,12.18
2022-10-10T17:29:29.083Z,8.45
2022-10-10T17:31:33.570Z,5.45
2022-10-10T17:33:37.255Z,5.40
2022-10-10T17:35:43.382Z,4.95
2022-10-10T17:37:46.045Z,4.20
2022-10-10T17:39:48.926Z,5.95
2022-10-10T17:41:51.773Z,15.98
2022-10-10T17:43:54.568Z,14.23
2022-10-10T17:46:21.592Z,16.17
2022-10-10T17:48:25.189Z,4.65
2022-10-10T17:50:27.888Z,10.25
2022-10-10T17:52:30.559Z,6.50
2022-10-10T17:54:33.184Z,3.88
2022-10-10T17:56:36.114Z,4.18
2022-10-10T17:58:38.816Z,4.38
2022-10-10T18:00:42.266Z,4.72
2022-10-10T18:02:44.906Z,8.27
2022-10-10T18:04:48.931Z,5.40
2022-10-10T18:06:51.532Z,11.95
2022-10-10T18:08:55.058Z,10.70
2022-10-10T18:10:57.675Z,13.35
2022-10-10T18:13:01.824Z,12.65
2022-10-10T18:15:04.930Z,10.07
2022-10-10T18:17:07.599Z,11.52
2022-10-10T18:19:11.422Z,11.35
2022-10-10T18:21:16.217Z,6.25
2022-10-10T18:23:19.351Z,4.95
2022-10-10T18:25:25.057Z,4.20
2022-10-10T18:27:29.820Z,4.55
2022-10-10T18:29:32.508Z,3.60
2022-10-10T18:31:38.079Z,7.72
2022-10-10T18:33:40.880Z,3.13
2022-10-10T18:35:43.529Z,3.47
2022-10-10T18:37:47.508Z,3.10
2022-10-10T18:39:50.333Z,19.65
2022-10-10T18:41:52.910Z,2.95
2022-10-10T18:43:57.234Z,4.43
2022-10-10T18:46:00.502Z,3.38
2022-10-10T18:48:03.149Z,3.92
2022-10-10T18:50:06.470Z,4.53
2022-10-10T18:52:10.081Z,4.10
2022-10-10T18:54:16.310Z,4.43
2022-10-10T18:56:24.316Z,4.35
2022-10-10T18:58:27.570Z,4.28
2022-10-10T19:00:30.204Z,5.70
2022-10-10T19:02:32.849Z,3.83
2022-10-10T19:04:35.460Z,4.20
2022-10-10T19:06:40.345Z,3.90
2022-10-10T19:08:43.751Z,5.22
2022-10-10T19:10:49.080Z,4.43
2022-10-10T19:12:51.762Z,4.32
2022-10-10T19:14:54.426Z,5.43
2022-10-10T19:16:57.054Z,5.40
2022-10-10T19:19:00.779Z,5.90
2022-10-10T19:21:05.945Z,18.00
2022-10-10T19:23:08.828Z,4.63
2022-10-10T19:25:11.468Z,7.55
2022-10-10T19:27:15.457Z,5.10
2022-10-10T19:29:18.054Z,5.32
2022-10-10T19:31:21.214Z,5.90
2022-10-10T19:33:23.879Z,5.75
2022-10-10T19:35:26.637Z,5.32
2022-10-10T19:37:29.268Z,4.78
2022-10-10T19:39:31.881Z,7.18
2022-10-10T19:41:34.846Z,8.82
2022-10-10T19:43:38.792Z,7.63
2022-10-10T19:45:41.816Z,8.05
2022-10-10T19:47:44.456Z,6.60
2022-10-10T19:49:47.158Z,4.72
2022-10-10T19:51:49.778Z,3.90
2022-10-10T19:53:52.570Z,3.30
2022-10-10T19:55:58.915Z,3.40
2022-10-10T19:58:01.569Z,3.10
2022-10-10T20:00:07.017Z,3.80
2022-10-10T20:02:11.364Z,3.83
2022-10-10T20:04:14.074Z,3.90
2022-10-10T20:06:17.725Z,4.05
2022-10-10T20:08:21.099Z,3.22
2022-10-10T20:10:24.231Z,5.30
2022-10-10T20:12:26.876Z,5.60
2022-10-10T20:14:29.455Z,3.42
2022-10-10T20:16:33.724Z,3.03
2022-10-10T20:18:39.540Z,2.70
2022-10-10T20:20:42.513Z,3.63
2022-10-10T20:22:45.422Z,4.15
2022-10-10T20:24:48.057Z,3.55
2022-10-10T20:26:50.659Z,4.45
2022-10-10T20:28:54.022Z,6.05
2022-10-10T20:30:56.672Z,5.20
2022-10-10T20:33:00.739Z,3.53
2022-10-10T20:35:03.388Z,4.72
2022-10-10T20:37:06.037Z,3.35
2022-10-10T20:39:12.564Z,3.40
2022-10-10T20:43:17.613Z,4.00
2022-10-10T20:45:20.251Z,4.10
2022-10-10T20:47:23.412Z,3.63
2022-10-10T20:49:27.415Z,4.05
2022-10-10T20:51:30.459Z,3.42
2022-10-10T20:53:33.522Z,3.03
2022-10-10T20:55:36.126Z,3.30
2022-10-10T20:57:38.749Z,3.60
2022-10-10T20:59:41.397Z,4.72
2022-10-10T21:01:45.623Z,3.92
2022-10-10T21:03:49.041Z,7.10
2022-10-10T21:06:02.589Z,3.92
2022-10-10T21:08:05.524Z,10.63
2022-10-10T21:10:09.290Z,3.33
2022-10-10T21:12:11.870Z,4.40
2022-10-10T21:14:14.470Z,3.10
2022-10-10T21:16:18.480Z,3.35
2022-10-10T21:18:21.339Z,3.50
2022-10-10T21:20:23.935Z,5.00
2022-10-10T21:22:27.931Z,3.17
2022-10-10T21:24:30.569Z,3.65
2022-10-10T21:26:33.201Z,3.55
2022-10-10T21:28:36.775Z,3.85
2022-10-10T21:30:47.261Z,3.10
2022-10-10T21:32:49.868Z,2.92
2022-10-10T21:34:56.341Z,3.10
2022-10-10T21:36:59.202Z,3.47
2022-10-10T21:39:03.765Z,3.30
2022-10-10T21:41:07.713Z,3.28
2022-10-10T21:43:10.542Z,3.15
2022-10-10T21:45:13.202Z,2.90
2022-10-10T21:47:15.921Z,3.55
2022-10-10T21:49:18.617Z,4.85
2022-10-10T21:51:22.014Z,7.03
2022-10-10T21:53:24.687Z,5.20
2022-10-10T21:55:28.684Z,4.85
2022-10-10T21:57:31.276Z,4.60
2022-10-10T21:59:33.893Z,3.92
2022-10-10T22:01:37.536Z,4.65
2022-10-10T22:03:40.496Z,4.43
2022-10-10T22:05:44.685Z,5.10
2022-10-10T22:07:47.313Z,4.20
2022-10-10T22:09:50.239Z,7.00
2022-10-10T22:11:54.241Z,4.72
2022-10-10T22:13:58.210Z,4.55
2022-10-10T22:16:01.172Z,4.32
2022-10-10T22:18:04.079Z,4.03
2022-10-10T22:20:09.555Z,5.35
2022-10-10T22:22:12.150Z,4.68
2022-10-10T22:24:14.728Z,4.95
2022-10-10T22:26:17.901Z,4.80
2022-10-10T22:28:21.921Z,4.63
2022-10-10T22:30:24.545Z,5.05
2022-10-10T22:32:27.207Z,4.72
2022-10-10T22:34:29.796Z,5.22
2022-10-10T22:36:32.530Z,6.20
2022-10-10T22:38:38.160Z,5.30
2022-10-10T22:40:40.809Z,4.57
2022-10-10T22:42:43.457Z,4.88
2022-10-10T22:44:47.461Z,5.35
2022-10-10T22:46:50.039Z,4.50
2022-10-10T22:48:52.728Z,6.60
2022-10-10T22:51:03.228Z,5.65
2022-10-10T22:53:06.150Z,5.07
2022-10-10T22:55:13.238Z,6.47
2022-10-10T22:57:18.683Z,6.45
2022-10-10T22:59:21.354Z,5.20
2022-10-10T23:01:26.995Z,5.88
2022-10-10T23:03:29.716Z,5.32
2022-10-10T23:05:32.365Z,10.13
2022-10-10T23:07:35.005Z,6.90
2022-10-10T23:09:37.705Z,6.32
2022-10-10T23:11:40.490Z,6.93
2022-10-10T23:13:43.164Z,4.85
2022-10-10T23:15:45.752Z,5.03
2022-10-10T23:17:49.725Z,4.45
2022-10-10T23:19:52.329Z,4.90
2022-10-10T23:21:54.928Z,4.45
2022-10-10T23:23:57.642Z,4.82
2022-10-10T23:26:00.319Z,4.43
2022-10-10T23:28:02.900Z,4.82
2022-10-10T23:30:06.615Z,4.43
2022-10-10T23:32:09.193Z,4.35
2022-10-10T23:34:13.179Z,4.57
2022-10-10T23:36:16.296Z,4.13
2022-10-10T23:38:18.871Z,4.55
2022-10-10T23:40:21.509Z,4.10
2022-10-10T23:42:24.104Z,3.95
2022-10-10T23:44:26.778Z,5.13
2022-10-10T23:46:29.412Z,5.35
2022-10-10T23:48:32.005Z,5.28
2022-10-10T23:50:36.060Z,4.82
2022-10-10T23:52:38.781Z,4.63
2022-10-10T23:54:41.439Z,5.00
2022-10-10T23:56:44.030Z,5.47
2022-10-10T23:58:46.991Z,6.00
